createdAt,value
2018-05-17T00:02:04.421Z,13.50
2018-05-17T00:05:07.107Z,13.50
2018-05-17T00:08:09.729Z,13.40
2018-05-17T00:11:13.132Z,13.40
2018-05-17T00:14:15.723Z,13.40
2018-05-17T00:17:19.061Z,13.30
2018-05-17T00:20:21.751Z,13.30
2018-05-17T00:23:24.397Z,13.20
2018-05-17T00:26:27.058Z,13.20
2018-05-17T00:29:29.644Z,13.10
2018-05-17T00:32:32.238Z,13.10
2018-05-17T00:35:35.593Z,13.10
2018-05-17T00:38:38.213Z,13.10
2018-05-17T00:41:42.380Z,13.10
2018-05-17T00:44:44.976Z,13.00
2018-05-17T00:47:47.644Z,13.00
2018-05-17T00:50:50.244Z,13.00
2018-05-17T00:53:52.987Z,12.90
2018-05-17T00:56:55.646Z,12.80
2018-05-17T00:59:58.171Z,12.80
2018-05-17T01:03:00.766Z,12.80
2018-05-17T01:06:03.378Z,12.80
2018-05-17T01:09:06.070Z,12.70
2018-05-17T01:12:09.697Z,12.60
2018-05-17T01:15:12.327Z,12.60
2018-05-17T01:18:15.025Z,12.60
2018-05-17T01:21:19.129Z,12.50
2018-05-17T01:24:21.738Z,12.50
2018-05-17T01:27:24.332Z,12.60
2018-05-17T01:30:26.937Z,12.60
2018-05-17T01:33:29.586Z,12.50
2018-05-17T01:36:32.202Z,12.50
2018-05-17T01:39:34.788Z,12.50
2018-05-17T01:42:37.461Z,12.50
2018-05-17T01:45:40.080Z,12.50
2018-05-17T01:48:42.683Z,12.40
2018-05-17T01:51:45.291Z,12.40
2018-05-17T01:54:48.647Z,12.40
2018-05-17T01:57:51.242Z,12.40
2018-05-17T02:00:53.991Z,12.40
2018-05-17T02:03:56.888Z,12.40
2018-05-17T02:06:59.649Z,12.40
2018-05-17T02:10:02.289Z,12.40
2018-05-17T02:13:05.645Z,12.30
2018-05-17T02:16:08.254Z,12.30
2018-05-17T02:19:11.049Z,12.30
2018-05-17T02:22:13.637Z,12.30
2018-05-17T02:25:16.235Z,12.30
2018-05-17T02:28:18.820Z,12.30
2018-05-17T02:31:21.432Z,12.30
2018-05-17T02:34:24.089Z,12.30
2018-05-17T02:37:27.464Z,12.30
2018-05-17T02:40:31.766Z,12.30
2018-05-17T02:43:34.352Z,12.30
2018-05-17T02:46:36.944Z,12.30
2018-05-17T02:49:39.522Z,12.30
2018-05-17T02:52:42.105Z,12.20
2018-05-17T02:55:44.690Z,12.20
2018-05-17T02:58:47.286Z,12.10
2018-05-17T03:01:49.896Z,12.10
2018-05-17T03:04:53.298Z,12.00
2018-05-17T03:07:55.866Z,12.00
2018-05-17T03:10:59.223Z,12.00
2018-05-17T03:14:01.804Z,12.00
2018-05-17T03:17:04.366Z,12.00
2018-05-17T03:20:06.958Z,11.90
2018-05-17T03:23:09.616Z,12.00
2018-05-17T03:26:12.397Z,12.00
2018-05-17T03:29:15.008Z,12.00
2018-05-17T03:32:17.572Z,12.00
2018-05-17T03:35:20.158Z,12.00
2018-05-17T03:38:22.768Z,12.00
2018-05-17T03:41:25.407Z,12.00
2018-05-17T03:44:27.989Z,12.00
2018-05-17T03:47:30.576Z,12.10
2018-05-17T03:50:33.132Z,12.10
2018-05-17T03:53:35.730Z,12.10
2018-05-17T03:56:38.320Z,12.10
2018-05-17T03:59:40.903Z,12.10
2018-05-17T04:02:55.394Z,12.20
2018-05-17T04:06:09.818Z,12.20
2018-05-17T04:09:12.391Z,12.30
2018-05-17T04:12:14.978Z,12.30
2018-05-17T04:15:17.548Z,12.30
2018-05-17T04:18:20.129Z,12.40
2018-05-17T04:21:23.497Z,12.30
2018-05-17T04:24:26.142Z,12.30
2018-05-17T04:27:28.708Z,12.30
2018-05-17T04:30:31.296Z,12.40
2018-05-17T04:33:33.917Z,12.50
2018-05-17T04:36:36.478Z,12.50
2018-05-17T04:39:39.062Z,12.70
2018-05-17T04:42:41.619Z,12.80
2018-05-17T04:45:44.205Z,13.00
2018-05-17T04:48:46.763Z,13.20
2018-05-17T04:51:50.151Z,13.50
2018-05-17T04:54:52.735Z,13.50
2018-05-17T04:57:56.143Z,13.80
2018-05-17T05:00:58.758Z,13.80
2018-05-17T05:04:01.359Z,13.90
2018-05-17T05:07:04.039Z,14.10
2018-05-17T05:10:06.650Z,14.20
2018-05-17T05:13:09.219Z,14.40
2018-05-17T05:16:11.845Z,14.50
2018-05-17T05:19:14.544Z,14.60
2018-05-17T05:22:17.226Z,14.60
2018-05-17T05:25:19.837Z,14.70
2018-05-17T05:28:22.455Z,14.80
2018-05-17T05:31:25.026Z,14.80
2018-05-17T05:34:27.660Z,15.00
2018-05-17T05:37:30.327Z,15.20
2018-05-17T05:40:32.914Z,15.30
2018-05-17T05:43:35.513Z,15.50
2018-05-17T05:46:38.113Z,15.60
2018-05-17T05:49:41.402Z,15.90
2018-05-17T05:52:44.009Z,16.40
2018-05-17T05:55:46.638Z,16.90
2018-05-17T05:58:49.255Z,17.50
2018-05-17T06:01:51.912Z,18.10
2018-05-17T06:04:54.585Z,18.60
2018-05-17T06:07:57.468Z,19.40
2018-05-17T06:11:00.433Z,20.00
2018-05-17T06:14:03.036Z,20.50
2018-05-17T06:17:05.723Z,20.80
2018-05-17T06:20:08.345Z,21.10
2018-05-17T06:23:11.110Z,21.30
2018-05-17T06:26:13.708Z,21.90
2018-05-17T06:29:16.327Z,22.50
2018-05-17T06:32:18.893Z,23.30
2018-05-17T06:35:21.502Z,24.50
2018-05-17T06:38:24.848Z,26.00
2018-05-17T06:41:27.507Z,26.00
2018-05-17T06:44:30.975Z,27.30
2018-05-17T06:47:33.606Z,27.30
2018-05-17T06:50:36.233Z,27.30
2018-05-17T06:53:39.585Z,27.40
2018-05-17T06:56:42.166Z,28.10
2018-05-17T06:59:44.830Z,28.90
2018-05-17T07:02:48.271Z,30.90
2018-05-17T07:05:50.912Z,30.90
2018-05-17T07:08:53.519Z,32.10
2018-05-17T07:11:56.112Z,32.90
2018-05-17T07:14:58.728Z,33.90
2018-05-17T07:18:01.430Z,34.70
2018-05-17T07:21:03.957Z,34.80
2018-05-17T07:24:06.598Z,35.20
2018-05-17T07:27:09.187Z,36.20
2018-05-17T07:30:12.608Z,36.80
2018-05-17T07:33:15.326Z,36.80
2018-05-17T07:36:17.947Z,36.90
2018-05-17T07:39:20.562Z,37.60
2018-05-17T07:42:23.147Z,38.10
2018-05-17T07:45:25.731Z,37.60
2018-05-17T07:48:28.474Z,38.70
2018-05-17T07:51:31.289Z,40.10
2018-05-17T07:54:34.078Z,41.30
2018-05-17T07:57:36.678Z,42.10
2018-05-17T08:00:39.265Z,42.30
2018-05-17T08:03:41.858Z,42.40
2018-05-17T08:06:44.597Z,41.90
2018-05-17T08:09:47.407Z,41.20
2018-05-17T08:12:50.021Z,40.70
2018-05-17T08:15:52.640Z,39.60
2018-05-17T08:18:55.336Z,37.50
2018-05-17T08:21:57.925Z,36.10
2018-05-17T08:25:00.516Z,35.10
2018-05-17T08:28:03.103Z,34.00
2018-05-17T08:31:05.843Z,33.10
2018-05-17T08:34:08.534Z,32.10
2018-05-17T08:37:11.142Z,31.00
2018-05-17T08:40:13.727Z,30.30
2018-05-17T08:43:16.340Z,29.60
2018-05-17T08:46:18.959Z,29.00
2018-05-17T08:49:22.354Z,27.80
2018-05-17T08:52:24.952Z,27.80
2018-05-17T08:55:28.372Z,27.40
2018-05-17T08:58:30.987Z,27.30
2018-05-17T09:01:33.647Z,27.40
2018-05-17T09:04:36.252Z,27.30
2018-05-17T09:07:38.941Z,27.20
2018-05-17T09:10:41.515Z,27.00
2018-05-17T09:13:44.431Z,26.70
2018-05-17T09:16:47.159Z,26.50
2018-05-17T09:19:49.779Z,26.20
2018-05-17T09:22:52.390Z,25.70
2018-05-17T09:25:55.025Z,25.30
2018-05-17T09:28:57.605Z,24.70
2018-05-17T09:32:00.267Z,24.40
2018-05-17T09:35:02.918Z,24.20
2018-05-17T09:38:05.555Z,23.90
2018-05-17T09:41:08.426Z,24.00
2018-05-17T09:44:10.995Z,24.40
2018-05-17T09:47:14.567Z,25.20
2018-05-17T09:50:18.079Z,25.20
2018-05-17T09:53:20.799Z,25.00
2018-05-17T09:56:23.371Z,25.00
2018-05-17T09:59:25.966Z,25.00
2018-05-17T10:02:28.644Z,25.00
2018-05-17T10:05:31.242Z,24.70
2018-05-17T10:08:34.104Z,24.40
2018-05-17T10:11:36.689Z,24.10
2018-05-17T10:14:39.370Z,23.90
2018-05-17T10:17:42.065Z,23.90
2018-05-17T10:20:45.271Z,24.40
2018-05-17T10:23:47.913Z,25.00
2018-05-17T10:26:51.264Z,26.10
2018-05-17T10:29:53.893Z,26.00
2018-05-17T10:32:56.731Z,25.80
2018-05-17T10:35:59.368Z,26.10
2018-05-17T10:39:02.066Z,26.20
2018-05-17T10:42:04.680Z,26.10
2018-05-17T10:45:07.318Z,26.10
2018-05-17T10:48:09.929Z,26.30
2018-05-17T10:51:12.491Z,26.20
2018-05-17T10:54:16.003Z,25.70
2018-05-17T10:57:19.186Z,25.60
2018-05-17T11:00:22.607Z,25.60
2018-05-17T11:03:25.180Z,25.60
2018-05-17T11:06:27.761Z,25.70
2018-05-17T11:09:31.184Z,25.60
2018-05-17T11:12:33.794Z,25.60
2018-05-17T11:15:36.414Z,25.50
2018-05-17T11:18:39.973Z,24.80
2018-05-17T11:21:42.560Z,24.80
2018-05-17T11:24:45.167Z,24.80
2018-05-17T11:27:47.779Z,24.80
2018-05-17T11:30:50.387Z,24.60
2018-05-17T11:33:53.264Z,24.60
2018-05-17T11:36:55.863Z,24.80
2018-05-17T11:39:59.037Z,25.20
2018-05-17T11:43:01.825Z,25.60
2018-05-17T11:46:05.463Z,26.10
2018-05-17T11:49:08.143Z,26.10
2018-05-17T11:52:13.153Z,26.30
2018-05-17T11:55:15.806Z,26.30
2018-05-17T11:58:19.396Z,26.00
2018-05-17T12:01:22.132Z,26.00
2018-05-17T12:04:24.891Z,25.70
2018-05-17T12:07:27.548Z,25.50
2018-05-17T12:10:30.330Z,25.40
2018-05-17T12:13:33.045Z,25.30
2018-05-17T12:16:36.552Z,25.50
2018-05-17T12:19:40.000Z,25.70
2018-05-17T12:22:43.371Z,25.60
2018-05-17T12:25:45.992Z,25.80
2018-05-17T12:28:48.726Z,25.90
2018-05-17T12:31:52.522Z,25.90
2018-05-17T12:34:55.233Z,25.90
2018-05-17T12:37:57.813Z,26.00
2018-05-17T12:41:00.410Z,26.30
2018-05-17T12:44:02.991Z,26.40
2018-05-17T12:47:05.658Z,26.30
2018-05-17T12:50:08.255Z,26.00
2018-05-17T12:53:13.688Z,25.70
2018-05-17T12:56:16.607Z,25.40
2018-05-17T12:59:19.248Z,25.30
2018-05-17T13:02:22.608Z,25.20
2018-05-17T13:05:25.435Z,25.20
2018-05-17T13:08:28.838Z,25.20
2018-05-17T13:11:32.194Z,25.30
2018-05-17T13:14:35.548Z,25.40
2018-05-17T13:17:38.149Z,25.40
2018-05-17T13:20:40.837Z,25.80
2018-05-17T13:23:43.433Z,26.10
2018-05-17T13:26:46.028Z,26.30
2018-05-17T13:29:48.650Z,26.30
2018-05-17T13:32:51.554Z,26.20
2018-05-17T13:35:54.215Z,26.30
2018-05-17T13:38:56.868Z,25.90
2018-05-17T13:41:59.502Z,25.80
2018-05-17T13:45:02.178Z,25.50
2018-05-17T13:48:04.821Z,25.30
2018-05-17T13:51:07.414Z,25.10
2018-05-17T13:54:10.033Z,25.00
2018-05-17T13:57:12.823Z,24.90
2018-05-17T14:00:15.467Z,24.80
2018-05-17T14:03:18.313Z,24.90
2018-05-17T14:06:20.909Z,24.80
2018-05-17T14:09:23.488Z,24.70
2018-05-17T14:12:26.047Z,24.60
2018-05-17T14:15:28.661Z,24.50
2018-05-17T14:18:31.285Z,24.40
2018-05-17T14:21:34.642Z,24.40
2018-05-17T14:24:37.267Z,24.40
2018-05-17T14:27:40.627Z,24.20
2018-05-17T14:30:43.368Z,24.20
2018-05-17T14:33:45.962Z,24.20
2018-05-17T14:36:48.541Z,24.10
2018-05-17T14:39:51.146Z,24.00
2018-05-17T14:42:53.770Z,23.80
2018-05-17T14:45:56.378Z,23.70
2018-05-17T14:48:59.161Z,23.70
2018-05-17T14:52:01.899Z,23.70
2018-05-17T14:55:04.510Z,23.70
2018-05-17T14:58:22.583Z,23.80
2018-05-17T15:01:25.231Z,24.00
2018-05-17T15:04:27.816Z,24.10
2018-05-17T15:07:30.448Z,24.20
2018-05-17T15:10:33.054Z,24.20
2018-05-17T15:13:35.646Z,24.30
2018-05-17T15:16:38.218Z,24.30
2018-05-17T15:19:40.802Z,24.20
2018-05-17T15:22:43.451Z,24.30
2018-05-17T15:25:46.223Z,24.30
2018-05-17T15:28:48.831Z,24.30
2018-05-17T15:31:51.409Z,24.30
2018-05-17T15:34:54.766Z,24.30
2018-05-17T15:37:57.709Z,24.40
2018-05-17T15:41:00.464Z,24.30
2018-05-17T15:44:03.065Z,24.40
2018-05-17T15:47:05.633Z,24.30
2018-05-17T15:50:08.232Z,24.30
2018-05-17T15:53:10.787Z,24.10
2018-05-17T15:56:13.562Z,24.10
2018-05-17T15:59:17.055Z,24.00
2018-05-17T16:02:21.317Z,23.30
2018-05-17T16:05:23.909Z,23.30
2018-05-17T16:08:26.608Z,23.10
2018-05-17T16:11:29.174Z,22.90
2018-05-17T16:14:31.842Z,22.80
2018-05-17T16:17:34.717Z,22.60
2018-05-17T16:20:37.319Z,22.60
2018-05-17T16:23:40.550Z,22.60
2018-05-17T16:26:43.174Z,22.60
2018-05-17T16:29:45.825Z,22.70
2018-05-17T16:32:49.389Z,22.50
2018-05-17T16:35:52.051Z,22.50
2018-05-17T16:38:54.822Z,22.50
2018-05-17T16:41:58.195Z,22.40
2018-05-17T16:45:00.774Z,22.30
2018-05-17T16:48:03.424Z,22.30
2018-05-17T16:51:06.409Z,22.20
2018-05-17T16:54:09.188Z,22.20
2018-05-17T16:57:11.720Z,22.00
2018-05-17T17:00:14.440Z,21.90
2018-05-17T17:03:17.249Z,21.90
2018-05-17T17:06:19.854Z,21.80
2018-05-17T17:09:22.451Z,21.70
2018-05-17T17:12:25.040Z,21.60
2018-05-17T17:15:27.630Z,21.50
2018-05-17T17:18:30.234Z,21.40
2018-05-17T17:21:33.024Z,21.30
2018-05-17T17:24:35.620Z,21.20
2018-05-17T17:27:38.193Z,21.10
2018-05-17T17:30:40.897Z,20.90
2018-05-17T17:33:43.471Z,21.00
2018-05-17T17:36:46.101Z,20.60
2018-05-17T17:39:48.707Z,20.60
2018-05-17T17:42:52.087Z,20.40
2018-05-17T17:45:54.679Z,20.40
2018-05-17T17:48:58.082Z,20.10
2018-05-17T17:52:00.700Z,20.00
2018-05-17T17:55:03.371Z,20.00
2018-05-17T17:58:05.978Z,20.00
2018-05-17T18:01:08.573Z,20.00
2018-05-17T18:04:11.211Z,20.00
2018-05-17T18:07:13.829Z,19.90
2018-05-17T18:10:16.462Z,19.90
2018-05-17T18:13:19.144Z,19.90
2018-05-17T18:16:22.534Z,19.80
2018-05-17T18:19:25.163Z,19.80
2018-05-17T18:22:27.820Z,19.80
2018-05-17T18:25:30.571Z,19.80
2018-05-17T18:28:33.233Z,19.90
2018-05-17T18:31:35.980Z,19.90
2018-05-17T18:34:39.867Z,19.90
2018-05-17T18:37:42.567Z,19.80
2018-05-17T18:40:45.444Z,19.80
2018-05-17T18:43:48.152Z,19.70
2018-05-17T18:46:50.889Z,19.80
2018-05-17T18:49:53.513Z,19.70
2018-05-17T18:52:56.353Z,19.70
2018-05-17T18:55:58.978Z,19.60
2018-05-17T18:59:01.607Z,19.60
2018-05-17T19:02:04.301Z,19.50
2018-05-17T19:05:06.943Z,19.50
2018-05-17T19:08:11.384Z,19.50
2018-05-17T19:11:14.085Z,19.50
2018-05-17T19:14:16.954Z,19.50
2018-05-17T19:17:21.339Z,19.40
2018-05-17T19:20:24.677Z,19.40
2018-05-17T19:23:29.912Z,19.40
2018-05-17T19:26:32.564Z,19.30
2018-05-17T19:29:35.913Z,19.30
2018-05-17T19:32:38.650Z,19.20
2018-05-17T19:35:41.563Z,19.20
2018-05-17T19:38:44.624Z,19.20
2018-05-17T19:41:47.424Z,19.10
2018-05-17T19:44:50.131Z,19.10
2018-05-17T19:47:52.816Z,19.00
2018-05-17T19:50:56.724Z,18.90
2018-05-17T19:53:59.397Z,18.90
2018-05-17T19:57:02.805Z,18.80
2018-05-17T20:00:05.913Z,18.90
2018-05-17T20:03:08.517Z,18.80
2018-05-17T20:06:11.171Z,18.70
2018-05-17T20:09:14.440Z,18.60
2018-05-17T20:12:17.769Z,18.60
2018-05-17T20:15:20.969Z,18.60
2018-05-17T20:18:23.551Z,18.60
2018-05-17T20:21:27.052Z,18.60
2018-05-17T20:24:30.561Z,18.50
2018-05-17T20:27:33.302Z,18.50
2018-05-17T20:30:36.034Z,18.40
2018-05-17T20:33:38.762Z,18.40
2018-05-17T20:36:41.422Z,18.40
2018-05-17T20:39:45.757Z,18.30
2018-05-17T20:42:48.340Z,18.20
2018-05-17T20:45:51.060Z,18.20
2018-05-17T20:48:53.694Z,18.20
2018-05-17T20:51:56.977Z,18.20
2018-05-17T20:54:59.644Z,18.20
2018-05-17T20:58:02.335Z,18.20
2018-05-17T21:01:05.216Z,18.20
2018-05-17T21:04:09.119Z,18.10
2018-05-17T21:07:11.941Z,18.10
2018-05-17T21:10:14.684Z,18.10
2018-05-17T21:13:18.194Z,18.10
2018-05-17T21:16:21.113Z,18.10
2018-05-17T21:19:25.153Z,18.00
2018-05-17T21:22:27.790Z,18.00
2018-05-17T21:25:31.259Z,17.90
2018-05-17T21:28:33.991Z,17.90
2018-05-17T21:31:36.662Z,17.90
2018-05-17T21:34:39.280Z,17.80
2018-05-17T21:37:41.918Z,17.70
2018-05-17T21:40:45.551Z,17.70
2018-05-17T21:43:48.156Z,17.70
2018-05-17T21:46:50.877Z,17.70
2018-05-17T21:49:54.343Z,17.60
2018-05-17T21:52:57.115Z,17.50
2018-05-17T21:55:59.734Z,17.50
2018-05-17T21:59:02.880Z,17.40
2018-05-17T22:02:05.593Z,17.40
2018-05-17T22:05:08.378Z,17.40
2018-05-17T22:08:11.171Z,17.30
2018-05-17T22:11:13.841Z,17.30
2018-05-17T22:14:16.621Z,17.20
2018-05-17T22:17:19.417Z,17.10
2018-05-17T22:20:22.132Z,17.00
2018-05-17T22:23:24.787Z,17.00
2018-05-17T22:26:27.358Z,16.90
2018-05-17T22:29:30.035Z,16.90
2018-05-17T22:32:32.726Z,16.80
2018-05-17T22:35:35.931Z,16.80
2018-05-17T22:38:38.977Z,16.70
2018-05-17T22:41:41.708Z,16.70
2018-05-17T22:44:44.377Z,16.80
2018-05-17T22:47:47.259Z,16.80
2018-05-17T22:50:50.027Z,16.80
2018-05-17T22:53:53.446Z,16.70
2018-05-17T22:57:07.850Z,16.70
2018-05-17T23:00:16.177Z,16.80
2018-05-17T23:03:19.314Z,16.80
2018-05-17T23:06:21.951Z,16.70
2018-05-17T23:09:24.559Z,16.70
2018-05-17T23:12:27.895Z,16.90
2018-05-17T23:15:30.479Z,16.80
2018-05-17T23:18:33.121Z,16.80
2018-05-17T23:21:35.824Z,16.80
2018-05-17T23:24:38.488Z,16.80
2018-05-17T23:27:41.404Z,16.80
2018-05-17T23:30:44.112Z,16.80
2018-05-17T23:33:46.975Z,16.80
2018-05-17T23:36:49.579Z,16.80
2018-05-17T23:39:52.223Z,16.80
2018-05-17T23:42:55.679Z,16.70
2018-05-17T23:45:58.272Z,16.70
2018-05-17T23:49:01.101Z,16.70
2018-05-17T23:52:05.174Z,16.70
2018-05-17T23:55:07.780Z,16.70
2018-05-17T23:58:10.373Z,16.50
